Time;durP1;ratioP1;P1;durP2;ratioP2;P2;SDS_P1;SDS_P2;PMS_P1;PMS_P2;Temp;Humidity;BMP_temperature;BMP_pressure;BME280_temperature;BME280_humidity;BME280_pressure;Samples;Min_cycle;Max_cycle;Signal;HPM_P1;HPM_P2
2023/07/31 00:01:31;;;;;;;6.22;2.22;;;17.00;99.90;;;;;;5044908;28;20049;-75
2023/07/31 00:03:57;;;;;;;4.78;1.52;;;17.00;99.90;;;;;;5041884;28;20132;-74
2023/07/31 00:06:23;;;;;;;4.35;1.58;;;17.00;99.90;;;;;;5042023;28;20044;-74
2023/07/31 00:08:52;;;;;;;6.32;1.80;;;17.00;99.90;;;;;;5045402;28;20497;-74
2023/07/31 00:11:18;;;;;;;6.05;1.77;;;16.90;99.90;;;;;;5054595;28;20045;-74
2023/07/31 00:13:47;;;;;;;8.45;2.20;;;16.90;99.90;;;;;;5049461;28;20051;-74
2023/07/31 00:16:15;;;;;;;6.18;1.77;;;16.90;99.90;;;;;;5047150;28;20489;-75
2023/07/31 00:18:40;;;;;;;7.10;1.90;;;16.90;99.90;;;;;;5050823;28;20044;-75
2023/07/31 00:21:06;;;;;;;6.75;1.90;;;16.90;99.90;;;;;;5042304;28;20064;-74
2023/07/31 00:23:32;;;;;;;6.82;1.70;;;16.90;99.90;;;;;;5050663;28;20037;-74
2023/07/31 00:26:07;;;;;;;7.32;1.90;;;16.90;99.90;;;;;;5051053;28;20044;-74
2023/07/31 00:28:32;;;;;;;6.35;1.70;;;16.90;99.90;;;;;;5052157;28;20424;-74
2023/07/31 00:30:58;;;;;;;7.47;1.70;;;16.90;99.90;;;;;;5054641;28;20045;-74
2023/07/31 00:33:24;;;;;;;6.60;1.90;;;16.90;99.90;;;;;;5053013;28;20045;-74
2023/07/31 00:35:50;;;;;;;6.50;1.90;;;16.90;99.90;;;;;;5053730;28;20077;-74
2023/07/31 00:38:15;;;;;;;6.95;1.90;;;16.90;99.90;;;;;;5054323;28;20477;-73
2023/07/31 00:40:41;;;;;;;5.93;1.83;;;16.90;99.90;;;;;;5045629;28;20091;-74
2023/07/31 00:43:15;;;;;;;6.43;2.30;;;16.90;99.90;;;;;;5050687;28;20041;-74
2023/07/31 00:45:41;;;;;;;5.90;1.65;;;16.90;99.90;;;;;;5051932;28;20048;-73
2023/07/31 00:48:07;;;;;;;9.75;1.73;;;16.90;99.90;;;;;;5053917;28;20098;-73
2023/07/31 00:50:33;;;;;;;7.40;1.85;;;16.80;99.90;;;;;;5051926;28;20045;-72
2023/07/31 00:52:59;;;;;;;6.38;1.83;;;16.80;99.90;;;;;;5054033;28;20067;-73
2023/07/31 00:55:25;;;;;;;5.63;1.95;;;16.80;99.90;;;;;;5053707;28;20079;-73
2023/07/31 00:57:52;;;;;;;6.75;1.90;;;16.80;99.90;;;;;;5052545;28;20445;-73
2023/07/31 01:00:19;;;;;;;10.50;1.98;;;16.70;99.90;;;;;;5051272;28;20060;-74
2023/07/31 01:02:44;;;;;;;11.52;2.10;;;16.70;99.90;;;;;;5032637;28;20088;-73
2023/07/31 01:05:10;;;;;;;10.18;2.22;;;16.60;99.90;;;;;;5050799;28;20076;-73
2023/07/31 01:07:51;;;;;;;8.60;1.50;;;16.60;99.90;;;;;;5032746;28;20049;-73
2023/07/31 01:10:17;;;;;;;6.15;1.70;;;16.70;99.90;;;;;;5032544;28;20037;-74
2023/07/31 01:12:46;;;;;;;5.97;1.60;;;16.60;99.90;;;;;;5033340;28;20069;-74
2023/07/31 01:15:15;;;;;;;5.78;1.88;;;16.60;99.90;;;;;;5034354;28;20091;-73
2023/07/31 01:17:43;;;;;;;4.78;1.70;;;16.60;99.90;;;;;;5052774;28;20037;-74
2023/07/31 01:20:21;;;;;;;6.55;1.60;;;16.50;99.90;;;;;;5035756;28;20436;-73
2023/07/31 01:23:28;;;;;;;7.00;1.88;;;16.50;99.90;;;;;;5053401;28;20125;-73
2023/07/31 01:26:01;;;;;;;6.30;1.80;;;16.50;99.90;;;;;;4955353;28;20137;-73
2023/07/31 01:28:40;;;;;;;6.03;1.85;;;16.40;99.90;;;;;;4972441;28;20551;-73
2023/07/31 01:31:10;;;;;;;6.20;1.77;;;16.40;99.90;;;;;;5004392;28;20053;-73
2023/07/31 01:33:37;;;;;;;7.75;2.00;;;16.30;99.90;;;;;;5051727;28;20047;-73
2023/07/31 01:36:04;;;;;;;8.48;1.95;;;16.30;99.90;;;;;;5035332;28;20466;-72
2023/07/31 01:38:29;;;;;;;7.95;2.15;;;16.30;99.90;;;;;;5052679;28;20041;-73
2023/07/31 01:40:55;;;;;;;4.80;1.88;;;16.30;99.90;;;;;;5034666;28;20051;-72
2023/07/31 01:43:24;;;;;;;8.43;2.63;;;16.30;99.90;;;;;;5035218;28;20048;-72
2023/07/31 01:45:52;;;;;;;8.50;1.98;;;16.30;99.90;;;;;;5052298;28;20048;-72
2023/07/31 01:48:21;;;;;;;6.40;2.35;;;16.20;99.90;;;;;;5052961;28;20382;-73
2023/07/31 01:50:47;;;;;;;6.25;1.95;;;16.30;99.90;;;;;;5052952;28;20103;-71
2023/07/31 01:53:13;;;;;;;8.00;2.10;;;16.20;99.90;;;;;;5052055;28;20044;-71
2023/07/31 01:55:39;;;;;;;5.82;1.85;;;16.20;99.90;;;;;;5034352;28;20041;-71
2023/07/31 01:58:05;;;;;;;7.63;1.80;;;16.20;99.90;;;;;;5052938;28;20044;-71
2023/07/31 02:00:30;;;;;;;4.75;1.80;;;16.20;99.90;;;;;;5051390;28;20424;-72
2023/07/31 02:02:56;;;;;;;8.55;2.25;;;16.20;99.90;;;;;;5034561;28;20061;-71
2023/07/31 02:05:22;;;;;;;7.10;1.80;;;16.10;99.90;;;;;;5053025;28;20041;-71
2023/07/31 02:07:50;;;;;;;3.35;1.83;;;16.10;99.90;;;;;;5033642;28;20045;-72
2023/07/31 02:10:16;;;;;;;7.82;1.88;;;16.10;99.90;;;;;;5034727;28;20131;-71
2023/07/31 02:12:42;;;;;;;6.15;1.65;;;16.10;99.90;;;;;;5051906;28;20556;-72
2023/07/31 02:15:08;;;;;;;8.30;1.60;;;16.10;99.90;;;;;;5050845;28;20163;-71
2023/07/31 02:17:34;;;;;;;7.40;1.80;;;16.10;99.90;;;;;;5052695;28;20041;-72
2023/07/31 02:20:00;;;;;;;5.20;1.83;;;16.10;99.90;;;;;;5052691;28;20090;-71
2023/07/31 02:22:26;;;;;;;4.65;1.83;;;16.10;99.90;;;;;;5051952;28;20048;-71
2023/07/31 02:24:52;;;;;;;4.90;1.60;;;16.10;99.90;;;;;;5033865;28;20094;-71
2023/07/31 02:27:17;;;;;;;7.93;1.75;;;16.10;99.90;;;;;;5051956;28;20519;-71
2023/07/31 02:29:43;;;;;;;5.03;2.00;;;16.10;99.90;;;;;;5033414;28;20063;-71
2023/07/31 02:32:09;;;;;;;4.57;1.75;;;16.10;99.90;;;;;;5034592;28;20087;-72
2023/07/31 02:34:38;;;;;;;3.92;1.63;;;16.10;99.90;;;;;;5033925;28;20052;-72
2023/07/31 02:37:04;;;;;;;4.75;1.60;;;16.00;99.90;;;;;;5034430;28;20049;-72
2023/07/31 02:39:29;;;;;;;5.85;1.67;;;16.10;99.90;;;;;;5034635;28;20064;-71
2023/07/31 02:41:55;;;;;;;5.43;1.73;;;16.10;99.90;;;;;;5033185;28;20052;-71
2023/07/31 02:44:21;;;;;;;6.20;1.90;;;16.10;99.90;;;;;;5034500;28;20473;-71
2023/07/31 02:46:47;;;;;;;5.63;1.75;;;16.00;99.90;;;;;;5052182;28;20045;-71
2023/07/31 02:49:18;;;;;;;4.80;1.75;;;16.00;99.90;;;;;;5051404;28;20420;-71
2023/07/31 02:51:50;;;;;;;6.38;1.83;;;16.00;99.90;;;;;;5034200;28;20396;-74
2023/07/31 02:54:15;;;;;;;4.95;1.73;;;16.10;99.90;;;;;;5052165;28;20443;-72
2023/07/31 02:56:41;;;;;;;4.50;1.65;;;16.10;99.90;;;;;;5050520;28;20041;-72
2023/07/31 02:59:10;;;;;;;7.90;2.05;;;16.10;99.90;;;;;;5051523;28;20068;-73
2023/07/31 03:01:36;;;;;;;6.05;1.70;;;16.00;99.90;;;;;;5034059;28;20037;-72
2023/07/31 03:04:02;;;;;;;8.23;1.80;;;16.00;99.90;;;;;;5051550;28;20063;-73
2023/07/31 03:06:27;;;;;;;4.18;1.60;;;16.00;99.90;;;;;;5052267;28;20508;-73
2023/07/31 03:08:53;;;;;;;5.93;1.50;;;16.00;99.90;;;;;;5051758;28;20051;-73
2023/07/31 03:11:19;;;;;;;2.80;1.40;;;16.00;99.90;;;;;;5032946;28;20048;-73
2023/07/31 03:13:45;;;;;;;3.83;1.48;;;15.90;99.90;;;;;;5034922;28;20052;-73
2023/07/31 03:16:13;;;;;;;2.63;1.45;;;15.90;99.90;;;;;;5037777;28;20036;-73
2023/07/31 03:18:39;;;;;;;5.22;1.50;;;15.80;99.90;;;;;;5036668;28;20037;-73
2023/07/31 03:21:05;;;;;;;4.22;1.52;;;15.80;99.90;;;;;;5038065;28;20048;-73
2023/07/31 03:23:30;;;;;;;4.85;1.30;;;15.80;99.90;;;;;;5055702;28;20037;-73
2023/07/31 03:26:07;;;;;;;2.80;1.20;;;15.80;99.90;;;;;;5055066;28;20067;-73
2023/07/31 03:28:33;;;;;;;2.92;1.13;;;15.80;99.90;;;;;;5035585;28;20048;-73
2023/07/31 03:30:59;;;;;;;3.97;1.20;;;15.80;99.90;;;;;;5035518;28;20041;-73
2023/07/31 03:33:25;;;;;;;2.58;0.90;;;15.80;99.90;;;;;;5055609;28;20055;-73
2023/07/31 03:35:51;;;;;;;2.13;0.90;;;15.80;99.90;;;;;;5055154;28;20041;-75
2023/07/31 03:38:19;;;;;;;2.05;0.70;;;15.80;99.90;;;;;;5036977;28;20041;-73
2023/07/31 03:40:45;;;;;;;3.72;0.90;;;15.80;99.90;;;;;;5055098;28;20110;-74
2023/07/31 03:43:15;;;;;;;2.55;0.82;;;15.70;99.90;;;;;;5037617;28;20397;-73
2023/07/31 03:45:40;;;;;;;1.85;0.80;;;15.70;99.90;;;;;;5036975;28;20040;-73
2023/07/31 03:48:07;;;;;;;1.67;0.70;;;15.70;99.90;;;;;;5056045;28;20037;-71
2023/07/31 03:50:33;;;;;;;2.85;0.88;;;15.70;99.90;;;;;;5038795;28;20365;-73
2023/07/31 03:52:59;;;;;;;2.33;0.73;;;15.70;99.90;;;;;;5039472;28;20048;-72
2023/07/31 03:55:25;;;;;;;2.55;0.90;;;15.70;99.90;;;;;;5039272;28;20064;-72
2023/07/31 03:57:56;;;;;;;6.10;1.10;;;15.80;99.90;;;;;;5037822;28;20556;-72
2023/07/31 04:00:23;;;;;;;4.00;1.13;;;15.70;99.90;;;;;;5049013;28;20098;-72
2023/07/31 04:02:49;;;;;;;2.63;1.10;;;15.80;99.90;;;;;;5054751;28;20115;-73
2023/07/31 04:05:14;;;;;;;3.22;1.20;;;15.80;99.90;;;;;;5054007;28;20563;-73
2023/07/31 04:07:40;;;;;;;4.70;1.58;;;15.80;99.90;;;;;;5053688;28;20033;-73
2023/07/31 04:10:06;;;;;;;4.38;1.77;;;15.90;99.90;;;;;;5053596;28;20369;-73
2023/07/31 04:12:32;;;;;;;5.07;2.15;;;16.00;99.90;;;;;;5054180;28;20116;-73
2023/07/31 04:14:58;;;;;;;7.93;2.30;;;16.00;99.90;;;;;;5052644;28;20132;-73
2023/07/31 04:17:26;;;;;;;9.43;2.55;;;16.00;99.90;;;;;;5054936;28;20037;-73
2023/07/31 04:19:52;;;;;;;8.98;3.47;;;16.10;99.90;;;;;;5052722;28;20505;-73
2023/07/31 04:22:21;;;;;;;11.80;3.40;;;16.10;99.90;;;;;;5052233;28;20049;-73
2023/07/31 04:24:50;;;;;;;8.77;3.67;;;16.20;99.90;;;;;;5053034;28;20041;-73
2023/07/31 04:27:15;;;;;;;11.95;4.10;;;16.30;99.90;;;;;;5052043;28;20416;-73
2023/07/31 04:29:42;;;;;;;10.50;3.65;;;16.30;99.90;;;;;;5054446;28;20504;-73
2023/07/31 04:32:11;;;;;;;8.98;3.78;;;16.30;99.90;;;;;;5054301;28;20116;-72
2023/07/31 04:34:37;;;;;;;14.43;4.10;;;16.40;99.90;;;;;;5052104;28;20370;-73
2023/07/31 04:37:03;;;;;;;13.48;3.97;;;16.40;99.90;;;;;;5052902;28;20079;-73
2023/07/31 04:39:28;;;;;;;9.13;4.20;;;16.30;99.90;;;;;;5054465;28;20098;-73
2023/07/31 04:41:54;;;;;;;13.32;4.40;;;16.40;99.90;;;;;;5051948;28;20127;-73
2023/07/31 04:44:20;;;;;;;11.32;3.67;;;16.30;99.90;;;;;;5053988;28;20045;-73
2023/07/31 04:46:45;;;;;;;12.25;4.25;;;16.30;99.90;;;;;;5052927;28;20076;-73
2023/07/31 04:49:11;;;;;;;10.57;3.80;;;16.40;99.90;;;;;;5053053;28;20047;-73
2023/07/31 04:51:37;;;;;;;5.70;2.75;;;16.40;99.90;;;;;;5052633;28;20127;-71
2023/07/31 04:54:03;;;;;;;7.50;2.80;;;16.40;99.90;;;;;;5052803;28;20132;-72
2023/07/31 04:56:32;;;;;;;8.27;3.03;;;16.40;99.90;;;;;;5051960;28;20032;-72
2023/07/31 04:58:57;;;;;;;9.55;3.28;;;16.40;99.90;;;;;;5053348;28;20389;-72
2023/07/31 05:01:23;;;;;;;13.75;3.28;;;16.40;99.90;;;;;;5054046;28;20184;-72
2023/07/31 05:03:51;;;;;;;16.60;3.78;;;16.50;99.90;;;;;;5052564;28;20037;-72
2023/07/31 05:06:17;;;;;;;15.00;3.83;;;16.50;99.90;;;;;;5053965;28;20495;-73
2023/07/31 05:08:43;;;;;;;9.07;3.50;;;16.50;99.90;;;;;;5053343;28;20124;-72
2023/07/31 05:11:12;;;;;;;13.05;3.97;;;16.50;99.90;;;;;;5035209;28;20396;-73
2023/07/31 05:13:38;;;;;;;10.32;3.72;;;16.50;99.90;;;;;;5034748;28;20041;-73
2023/07/31 05:16:04;;;;;;;14.10;4.35;;;16.50;99.90;;;;;;5035761;28;20041;-72
2023/07/31 05:18:30;;;;;;;14.30;4.82;;;16.50;99.90;;;;;;5034550;28;20171;-72
2023/07/31 05:20:58;;;;;;;15.85;4.80;;;16.60;99.90;;;;;;5053277;28;20126;-74
2023/07/31 05:23:24;;;;;;;13.23;4.55;;;16.60;99.90;;;;;;5052901;28;20033;-73
2023/07/31 05:25:50;;;;;;;13.73;4.47;;;16.60;99.90;;;;;;5035103;28;20044;-73
2023/07/31 05:28:16;;;;;;;15.43;3.90;;;16.60;99.90;;;;;;5035256;28;20037;-73
2023/07/31 05:30:44;;;;;;;10.75;3.55;;;16.60;99.90;;;;;;5034572;28;20063;-73
2023/07/31 05:33:10;;;;;;;10.57;3.78;;;16.60;99.90;;;;;;5053061;28;20041;-72
2023/07/31 05:35:36;;;;;;;12.32;3.80;;;16.60;99.90;;;;;;5052254;28;20366;-73
2023/07/31 05:38:02;;;;;;;15.50;3.65;;;16.60;99.90;;;;;;5052366;28;20110;-73
2023/07/31 05:40:27;;;;;;;11.98;4.05;;;16.70;99.90;;;;;;5053227;28;20497;-72
2023/07/31 05:42:53;;;;;;;12.02;3.30;;;16.70;99.90;;;;;;5052160;28;20489;-72
2023/07/31 05:45:21;;;;;;;8.65;3.65;;;16.60;99.90;;;;;;5034695;28;20131;-72
2023/07/31 05:47:47;;;;;;;11.68;4.28;;;16.70;99.90;;;;;;5036836;28;20046;-72
2023/07/31 05:50:14;;;;;;;9.60;3.70;;;16.60;99.90;;;;;;5016698;28;20519;-75
2023/07/31 05:52:40;;;;;;;8.07;3.22;;;16.70;99.90;;;;;;5033774;28;20049;-74
2023/07/31 05:55:06;;;;;;;8.85;3.42;;;16.80;99.90;;;;;;5053105;28;20381;-74
2023/07/31 05:57:31;;;;;;;10.88;3.10;;;16.80;99.90;;;;;;5052191;28;20033;-74
2023/07/31 05:59:57;;;;;;;10.98;3.67;;;16.70;99.90;;;;;;5051655;28;20053;-74
2023/07/31 06:02:23;;;;;;;9.13;3.17;;;16.80;99.90;;;;;;5034687;28;20077;-74
2023/07/31 06:04:49;;;;;;;16.35;3.22;;;16.80;99.90;;;;;;5034468;28;20051;-75
2023/07/31 06:07:14;;;;;;;8.07;3.20;;;16.80;99.90;;;;;;5052025;28;20060;-75
2023/07/31 06:09:40;;;;;;;10.68;3.00;;;16.80;99.90;;;;;;5034175;28;20049;-74
2023/07/31 06:12:09;;;;;;;9.38;2.65;;;16.80;99.90;;;;;;5034791;28;20081;-76
2023/07/31 06:14:37;;;;;;;6.93;2.50;;;16.80;99.90;;;;;;5051324;28;20049;-76
2023/07/31 06:17:03;;;;;;;6.93;2.60;;;16.90;99.90;;;;;;5052410;28;20152;-76
2023/07/31 06:19:29;;;;;;;9.32;2.85;;;17.00;99.90;;;;;;5034253;28;20091;-76
2023/07/31 06:21:54;;;;;;;8.95;2.70;;;17.00;99.90;;;;;;5051003;28;20223;-77
2023/07/31 06:24:21;;;;;;;5.82;2.25;;;17.00;99.90;;;;;;5052364;28;20390;-74
2023/07/31 06:26:47;;;;;;;8.25;2.65;;;17.00;99.90;;;;;;5033851;28;20071;-73
2023/07/31 06:29:15;;;;;;;9.38;2.90;;;17.10;99.90;;;;;;5032866;28;20052;-74
2023/07/31 06:31:41;;;;;;;7.95;2.70;;;17.00;99.90;;;;;;5052071;28;20500;-76
2023/07/31 06:34:07;;;;;;;10.05;3.03;;;17.00;99.90;;;;;;5033536;28;20134;-76
2023/07/31 06:36:32;;;;;;;7.70;3.00;;;17.00;99.90;;;;;;5034532;28;20049;-75
2023/07/31 06:38:58;;;;;;;7.38;2.90;;;17.00;99.90;;;;;;5034191;28;20076;-79
2023/07/31 06:41:30;;;;;;;10.73;3.33;;;17.00;99.90;;;;;;5034007;28;20052;-82
2023/07/31 06:43:56;;;;;;;8.88;2.55;;;17.10;99.90;;;;;;5033868;28;20053;-77
2023/07/31 06:46:21;;;;;;;7.50;2.95;;;17.10;99.90;;;;;;5033669;28;20049;-75
2023/07/31 06:48:47;;;;;;;7.85;2.72;;;17.10;99.90;;;;;;5054596;28;20084;-75
2023/07/31 06:51:13;;;;;;;5.90;2.55;;;17.10;99.90;;;;;;5056421;28;20037;-73
2023/07/31 06:53:39;;;;;;;9.13;2.97;;;17.00;99.90;;;;;;5055944;28;20377;-75
2023/07/31 06:56:04;;;;;;;7.60;2.47;;;17.00;99.90;;;;;;5054670;28;20079;-75
2023/07/31 06:58:30;;;;;;;8.25;2.50;;;17.10;99.90;;;;;;5055454;28;20523;-74
2023/07/31 07:00:56;;;;;;;8.57;2.47;;;17.10;99.90;;;;;;5056101;28;20110;-75
2023/07/31 07:03:21;;;;;;;6.72;2.97;;;17.20;99.90;;;;;;5055491;28;20170;-74
2023/07/31 07:05:47;;;;;;;7.88;2.47;;;17.30;99.90;;;;;;5055890;28;20051;-75
2023/07/31 07:08:13;;;;;;;7.57;2.60;;;17.40;99.90;;;;;;5032470;28;20045;-75
2023/07/31 07:10:39;;;;;;;6.78;2.80;;;17.50;99.90;;;;;;5036862;28;20048;-75
2023/07/31 07:13:04;;;;;;;5.30;1.90;;;17.50;99.90;;;;;;5055405;28;20045;-75
2023/07/31 07:15:33;;;;;;;6.63;2.25;;;17.70;99.90;;;;;;5056021;28;20045;-75
2023/07/31 07:17:58;;;;;;;6.82;2.40;;;17.70;99.90;;;;;;5055310;28;20400;-75
2023/07/31 07:20:24;;;;;;;4.45;1.73;;;17.80;99.90;;;;;;5055859;28;20041;-74
2023/07/31 07:22:50;;;;;;;4.03;1.52;;;17.90;99.90;;;;;;5055933;28;20041;-75
2023/07/31 07:25:16;;;;;;;4.25;1.80;;;18.00;99.90;;;;;;5036617;28;20480;-74
2023/07/31 07:27:44;;;;;;;4.22;1.55;;;18.00;99.90;;;;;;5055117;28;20052;-74
2023/07/31 07:30:14;;;;;;;3.53;1.15;;;17.90;99.90;;;;;;5055742;28;20131;-78
2023/07/31 07:32:40;;;;;;;5.30;1.40;;;17.80;99.90;;;;;;5056695;28;20048;-78
2023/07/31 07:35:09;;;;;;;3.80;1.30;;;17.90;99.90;;;;;;5037904;28;20041;-79
2023/07/31 07:37:35;;;;;;;2.67;1.10;;;18.00;99.90;;;;;;5034704;28;20060;-79
2023/07/31 07:40:01;;;;;;;2.55;1.00;;;18.10;99.90;;;;;;5037092;28;20045;-80
2023/07/31 07:42:26;;;;;;;3.30;1.40;;;18.10;99.90;;;;;;5037718;28;20048;-79
2023/07/31 07:44:52;;;;;;;2.70;0.90;;;18.00;99.90;;;;;;5036778;28;20049;-79
2023/07/31 07:47:18;;;;;;;1.77;0.80;;;18.00;99.90;;;;;;5055337;28;20041;-79
2023/07/31 07:49:43;;;;;;;2.40;0.95;;;18.10;99.90;;;;;;5054524;28;20098;-80
2023/07/31 07:52:09;;;;;;;3.60;0.90;;;18.10;99.90;;;;;;5036896;28;20049;-80
2023/07/31 07:54:35;;;;;;;4.72;1.05;;;18.10;99.90;;;;;;5036607;28;20060;-78
2023/07/31 07:57:00;;;;;;;4.28;0.90;;;18.20;99.90;;;;;;5037207;28;20045;-79
2023/07/31 07:59:26;;;;;;;3.92;1.00;;;18.20;99.90;;;;;;5027644;28;20063;-79
2023/07/31 08:01:53;;;;;;;5.10;1.02;;;18.20;99.90;;;;;;5017318;28;20106;-81
2023/07/31 08:04:21;;;;;;;4.28;1.08;;;18.30;99.90;;;;;;5016876;28;20082;-75
2023/07/31 08:06:47;;;;;;;4.35;1.10;;;18.40;99.90;;;;;;5016484;28;20041;-74
2023/07/31 08:09:13;;;;;;;2.08;1.02;;;18.50;99.90;;;;;;5013911;28;20429;-74
2023/07/31 08:11:41;;;;;;;3.35;1.13;;;18.60;99.90;;;;;;5020541;28;20041;-71
2023/07/31 08:14:09;;;;;;;6.15;1.20;;;18.70;99.90;;;;;;5033832;28;20501;-73
2023/07/31 08:16:35;;;;;;;2.75;0.95;;;18.90;99.90;;;;;;5017102;28;20041;-74
2023/07/31 08:19:01;;;;;;;3.95;1.20;;;18.90;99.90;;;;;;5016957;28;20056;-74
2023/07/31 08:21:29;;;;;;;3.13;1.30;;;19.10;99.90;;;;;;5015552;28;20456;-75
2023/07/31 08:23:55;;;;;;;3.58;1.02;;;19.20;99.90;;;;;;5034649;28;20037;-75
2023/07/31 08:26:21;;;;;;;3.72;0.70;;;19.50;99.90;;;;;;5015944;28;20512;-75
2023/07/31 08:28:47;;;;;;;2.35;0.90;;;19.50;99.90;;;;;;5016026;28;20147;-74
2023/07/31 08:31:13;;;;;;;1.90;1.13;;;19.60;99.90;;;;;;5015639;28;20057;-74
2023/07/31 08:34:00;;;;;;;3.28;0.90;;;19.50;99.90;;;;;;5555381;23;20049;-76
2023/07/31 08:41:13;;;;;;;3.38;1.10;;;19.10;99.90;;;;;;5053595;28;20076;-76
2023/07/31 08:44:04;;;;;;;3.25;1.08;;;18.60;99.90;;;;;;5053894;28;20523;-74
2023/07/31 08:47:24;;;;;;;3.03;1.00;;;19.30;99.90;;;;;;5005971;28;20369;-75
2023/07/31 08:50:21;;;;;;;3.63;1.00;;;19.50;99.90;;;;;;5032457;28;20143;-75
2023/07/31 08:53:05;;;;;;;4.50;0.85;;;19.10;99.90;;;;;;5024395;28;20052;-73
2023/07/31 08:55:35;;;;;;;2.95;1.10;;;19.60;99.90;;;;;;5035178;28;20049;-75
2023/07/31 08:58:05;;;;;;;2.03;0.80;;;19.40;99.90;;;;;;5034628;28;20044;-74
2023/07/31 09:00:35;;;;;;;2.03;0.88;;;19.10;99.90;;;;;;5036225;28;20044;-73
2023/07/31 09:03:11;;;;;;;1.75;0.65;;;19.00;99.90;;;;;;5052875;28;20049;-74
2023/07/31 09:05:40;;;;;;;1.95;0.80;;;18.90;99.90;;;;;;5053282;28;20554;-75
2023/07/31 09:08:09;;;;;;;3.30;0.90;;;18.90;99.90;;;;;;5035997;28;20431;-75
2023/07/31 09:10:35;;;;;;;2.20;0.88;;;18.80;99.90;;;;;;5033842;28;20075;-73
2023/07/31 09:13:02;;;;;;;3.22;1.00;;;18.70;99.90;;;;;;5053687;28;20447;-75
2023/07/31 09:15:28;;;;;;;1.90;0.80;;;18.70;99.90;;;;;;5053239;28;20507;-79
2023/07/31 09:18:03;;;;;;;3.05;1.05;;;18.70;99.90;;;;;;5052574;28;20131;-74
2023/07/31 09:20:28;;;;;;;2.60;0.88;;;18.60;99.90;;;;;;5035558;28;20045;-75
2023/07/31 09:22:55;;;;;;;2.20;0.90;;;18.60;99.90;;;;;;5033946;28;20556;-75
2023/07/31 09:25:25;;;;;;;1.27;0.70;;;18.60;99.90;;;;;;5052661;28;20049;-75
2023/07/31 09:27:54;;;;;;;2.55;0.73;;;18.70;99.90;;;;;;5050909;28;20072;-74
2023/07/31 09:30:21;;;;;;;3.30;0.80;;;18.70;99.90;;;;;;5032546;28;20141;-74
2023/07/31 09:32:49;;;;;;;1.30;0.52;;;18.80;99.90;;;;;;5051391;28;20519;-75
2023/07/31 09:35:23;;;;;;;1.05;0.45;;;18.80;99.90;;;;;;5034794;28;20128;-75
2023/07/31 09:38:13;;;;;;;1.30;0.60;;;18.90;99.90;;;;;;5050693;28;20416;-75
2023/07/31 09:40:49;;;;;;;1.42;0.60;;;18.90;99.90;;;;;;5044987;28;20052;-75
2023/07/31 09:43:18;;;;;;;;;;;18.90;99.90;;;;;;5055561;28;20053;-75
2023/07/31 09:45:45;;;;;;;2.45;0.80;;;19.10;99.90;;;;;;5052232;28;19946;-75
2023/07/31 09:48:13;;;;;;;2.67;0.60;;;19.10;99.90;;;;;;5053047;28;20140;-76
2023/07/31 09:50:42;;;;;;;1.90;0.55;;;19.10;99.90;;;;;;5051479;28;20056;-74
2023/07/31 09:53:09;;;;;;;2.08;0.65;;;19.10;99.90;;;;;;5051546;28;20052;-75
2023/07/31 09:55:39;;;;;;;2.47;0.80;;;18.90;99.90;;;;;;5051786;28;20041;-76
2023/07/31 09:58:10;;;;;;;2.78;0.90;;;18.90;99.90;;;;;;5050685;28;20523;-76
2023/07/31 10:00:37;;;;;;;4.35;0.93;;;18.80;99.90;;;;;;5052357;28;20067;-75
2023/07/31 10:03:09;;;;;;;2.90;1.00;;;18.80;99.90;;;;;;5052612;28;20420;-75
2023/07/31 10:05:38;;;;;;;5.85;1.23;;;18.90;99.90;;;;;;5050170;28;20045;-75
2023/07/31 10:08:06;;;;;;;3.00;0.90;;;19.00;99.90;;;;;;5050797;28;20045;-75
2023/07/31 10:10:32;;;;;;;3.15;1.00;;;19.10;99.90;;;;;;5051537;28;20040;-75
2023/07/31 10:13:02;;;;;;;3.95;1.00;;;19.20;99.90;;;;;;5050800;28;20049;-76
2023/07/31 10:15:29;;;;;;;2.67;0.98;;;19.20;99.90;;;;;;5051525;28;20098;-76
2023/07/31 10:17:59;;;;;;;3.78;1.20;;;19.20;99.90;;;;;;5050881;28;20102;-76
2023/07/31 10:20:27;;;;;;;3.00;1.02;;;19.20;99.90;;;;;;5052291;28;20044;-75
2023/07/31 10:22:58;;;;;;;3.33;1.27;;;19.20;99.90;;;;;;5050468;28;20056;-76
2023/07/31 10:25:24;;;;;;;2.85;1.23;;;19.30;99.90;;;;;;5054269;28;20049;-75
2023/07/31 10:27:52;;;;;;;6.00;1.80;;;19.50;99.90;;;;;;5051421;28;20049;-76
2023/07/31 10:30:20;;;;;;;6.70;2.08;;;19.60;99.90;;;;;;5052572;28;20045;-75
2023/07/31 10:32:48;;;;;;;8.13;2.17;;;19.50;99.90;;;;;;5050698;28;20045;-75
2023/07/31 10:35:15;;;;;;;7.93;2.00;;;19.60;99.90;;;;;;5050369;28;20045;-75
2023/07/31 10:37:48;;;;;;;6.88;1.80;;;19.70;99.90;;;;;;5051367;28;20041;-72
2023/07/31 10:40:25;;;;;;;6.60;1.83;;;19.80;99.90;;;;;;5051287;28;20080;-74
2023/07/31 10:42:55;;;;;;;4.68;1.45;;;19.80;99.90;;;;;;5033768;28;20084;-74
2023/07/31 10:45:43;;;;;;;3.40;1.40;;;20.00;99.90;;;;;;5034565;28;20037;-73
2023/07/31 10:48:13;;;;;;;4.57;1.80;;;20.30;99.90;;;;;;5051661;28;20103;-76
2023/07/31 10:50:51;;;;;;;4.95;1.42;;;20.30;99.90;;;;;;5034210;28;20049;-76
2023/07/31 10:53:30;;;;;;;4.22;1.10;;;20.20;99.90;;;;;;5034377;28;20049;-75
2023/07/31 10:56:04;;;;;;;4.65;1.50;;;20.10;99.90;;;;;;5033801;28;20051;-74
2023/07/31 10:58:32;;;;;;;3.00;1.10;;;19.80;99.90;;;;;;5053517;28;20053;-74
2023/07/31 11:01:00;;;;;;;8.52;1.70;;;19.80;99.90;;;;;;5054384;28;20436;-75
2023/07/31 11:03:40;;;;;;;5.60;1.27;;;19.90;99.90;;;;;;5053054;28;20037;-75
2023/07/31 11:06:09;;;;;;;4.55;1.40;;;20.00;99.90;;;;;;5052355;28;20366;-74
2023/07/31 11:08:41;;;;;;;7.63;1.60;;;20.00;99.90;;;;;;5050789;28;20168;-74
2023/07/31 11:11:09;;;;;;;8.25;2.33;;;19.90;99.90;;;;;;5052313;28;20049;-74
2023/07/31 11:13:49;;;;;;;6.43;1.85;;;19.90;99.90;;;;;;5052978;28;20041;-72
2023/07/31 11:16:18;;;;;;;7.05;1.85;;;19.90;99.90;;;;;;5056995;28;20048;-74
2023/07/31 11:18:45;;;;;;;4.45;1.48;;;19.80;99.90;;;;;;5033512;28;20128;-73
2023/07/31 11:21:23;;;;;;;4.80;1.60;;;19.80;99.90;;;;;;5051724;28;20094;-75
2023/07/31 11:23:55;;;;;;;3.30;1.58;;;19.80;99.90;;;;;;5050622;28;20079;-73
2023/07/31 11:26:23;;;;;;;5.15;1.40;;;19.80;99.90;;;;;;5034201;28;20048;-77
2023/07/31 11:28:49;;;;;;;5.28;1.60;;;19.90;99.90;;;;;;5033977;28;20050;-75
2023/07/31 11:31:18;;;;;;;4.45;1.60;;;19.90;99.90;;;;;;5033693;28;20128;-76
2023/07/31 11:33:44;;;;;;;3.40;1.33;;;20.10;99.90;;;;;;5050273;28;20049;-75
2023/07/31 11:36:17;;;;;;;3.47;1.17;;;20.20;99.90;;;;;;5039941;28;20084;-73
2023/07/31 11:38:44;;;;;;;4.50;1.27;;;20.40;99.90;;;;;;5035494;28;20048;-75
2023/07/31 11:41:09;;;;;;;6.03;1.50;;;20.40;99.90;;;;;;5017956;28;20505;-75
2023/07/31 11:43:36;;;;;;;3.60;1.38;;;20.40;99.90;;;;;;5020520;28;20060;-75
2023/07/31 11:46:06;;;;;;;3.05;1.20;;;20.60;99.90;;;;;;5037715;28;20048;-75
2023/07/31 11:48:35;;;;;;;5.10;1.40;;;20.80;99.90;;;;;;5036770;28;20056;-75
2023/07/31 11:51:03;;;;;;;6.35;1.83;;;20.90;99.90;;;;;;5054487;28;20041;-74
2023/07/31 11:53:41;;;;;;;5.25;1.63;;;20.80;99.90;;;;;;5037784;28;20049;-77
2023/07/31 11:56:09;;;;;;;5.78;2.03;;;20.70;99.90;;;;;;5055775;28;20049;-78
2023/07/31 11:58:36;;;;;;;7.25;2.38;;;20.80;99.90;;;;;;5035733;28;20075;-76
2023/07/31 12:01:02;;;;;;;8.27;2.65;;;20.70;99.90;;;;;;5053907;28;20072;-74
2023/07/31 12:03:28;;;;;;;9.63;2.83;;;20.80;99.90;;;;;;5054861;28;20053;-77
2023/07/31 12:05:55;;;;;;;6.53;2.30;;;20.80;99.90;;;;;;5036565;28;20092;-78
2023/07/31 12:08:22;;;;;;;5.57;2.00;;;20.70;99.90;;;;;;5054539;28;20064;-75
2023/07/31 12:10:54;;;;;;;8.65;2.10;;;20.50;99.90;;;;;;5054874;28;20055;-79
2023/07/31 12:13:26;;;;;;;5.57;2.10;;;20.50;99.90;;;;;;5036040;28;20091;-75
2023/07/31 12:15:59;;;;;;;6.32;2.00;;;20.50;99.90;;;;;;5036879;28;20052;-74
2023/07/31 12:18:26;;;;;;;8.40;2.20;;;20.60;99.90;;;;;;5035700;28;20053;-77
2023/07/31 12:20:57;;;;;;;7.90;2.45;;;20.50;99.90;;;;;;5054314;28;20051;-80
2023/07/31 12:23:28;;;;;;;10.23;2.50;;;20.50;99.90;;;;;;5039206;28;20049;-77
2023/07/31 12:26:20;;;;;;;8.05;2.50;;;20.50;99.90;;;;;;5044278;28;20065;-77
2023/07/31 12:28:47;;;;;;;6.20;2.17;;;20.40;99.90;;;;;;5049683;28;20493;-80
2023/07/31 12:31:17;;;;;;;8.63;2.53;;;20.20;99.90;;;;;;5036974;28;20570;-79
2023/07/31 12:33:43;;;;;;;7.75;2.60;;;20.10;99.90;;;;;;5053054;28;20081;-75
2023/07/31 12:36:10;;;;;;;10.13;2.55;;;20.10;99.90;;;;;;5053923;28;20053;-75
2023/07/31 12:38:36;;;;;;;7.60;2.20;;;20.10;99.90;;;;;;5035533;28;20040;-75
2023/07/31 12:41:01;;;;;;;9.27;3.05;;;20.20;99.90;;;;;;5053766;28;20045;-74
2023/07/31 12:43:27;;;;;;;7.45;2.10;;;20.20;99.90;;;;;;5054325;28;20040;-73
2023/07/31 12:45:56;;;;;;;7.70;2.30;;;20.30;99.90;;;;;;5053627;28;20430;-73
2023/07/31 12:48:22;;;;;;;7.80;2.53;;;20.10;99.90;;;;;;5053326;28;20109;-73
2023/07/31 12:50:47;;;;;;;7.40;2.15;;;20.00;99.90;;;;;;5053540;28;20056;-74
2023/07/31 12:53:17;;;;;;;9.68;2.35;;;20.00;99.90;;;;;;5036059;28;20405;-74
2023/07/31 12:55:43;;;;;;;10.85;2.65;;;19.90;99.90;;;;;;5035013;28;20130;-74